Terminal Aerodrome Forecast
Issued by NWS Cleveland, OH

Home | Current Version | Previous Version | Graphics & Text | Print | Product List | Glossary On
Versions: 1 2 3 4 5 6 7 8 9 10 11 12 13 14 15 16 17 18 19 20 21 22 23 24 25 26
000
FTUS41 KCLE 121133
TAFERI
TAF
KERI 121133Z 1212/1312 32014G22KT 1 1/2SM -SN BKN008 OVC015
      TEMPO 1212/1214 3SM -SN SCT008 OVC012
     FM121400 30015G25KT 5SM -SHSN OVC015
     FM121900 30020G30KT 1 1/2SM -SHSN BKN008 OVC012=

USA.gov is the U.S. government's official web portal to all federal, state and local government web resources and services.